Nipawin Airport
CYBU : now visible

Airfield :











YOU CAN JOIN US ON...

 
LOGIN :

Register | Disclaimer

   EN    FR    IT 

 









Legend :    VFR   Marginal VFR   IFR   Intensive IFR   Very Intensive IFR
Visi :
Ceiling :
>= 8 km
>= 3000ft
5 to 8 km
1000 to 3000 ft
1500m to 5 km
500 to 1000 ft
800 to 1500m
200 to 500 ft
< 800m
< 200 ft
Symbols :   Thunderstorms  Fog  Heavy snow  Heavy precipitations  Wind > 20 kt






- Airport Elevation : 1220 ft


CYBU - Nipawin

CURRENT METAR :
  • 161800Z AUTO 23017G29KT 9SM FEW041 SCT050 BKN100 11/05 A2947 RMK SLP991 DENSITY ALT 1600FT

EXPIRED METARs :
  • 161758Z AUTO 24020G29KT 9SM FEW041 SCT050 BKN096 BKN120 11/04 A2947 RMK SLP989 DENSITY ALT 1600FT
  • 161748Z AUTO 23020G27KT 9SM -RA SCT041 BKN050 BKN120 10/05 A2947 RMK SLP990 DENSITY ALT 1500FT
  • 161743Z AUTO 23022KT 220V280 9SM SCT041 BKN050 OVC120 11/05 A2947 RMK SLP991 DENSITY ALT 1600FT
  • 161718Z AUTO 27020G32KT 220V290 9SM -RA BKN046 OVC055 11/06 A2946 RMK SLP988 DENSITY ALT 1600FT
  • 161700Z AUTO 24019G29KT 9SM OVC050 13/02 A2945 RMK SLP986 DENSITY ALT 1800FT
  • 161600Z AUTO 22018G31KT 9SM CLR 12/03 A2945 RMK SLP986 DENSITY ALT 1700FT

TAF N/A
CZWG FIR / North America



MET'MAP, your aeronautical weather chart ! - Copyright ORBIFLY December 2007 - Disclaimer

ORBIFLY MET'MAP TEAM :

Programming & Development : Alexandra Zaïnal
Concept & original design : Baudouin d'Aumeries
Assistance for programming : Marc-Olivier Méhu
Technical & hardware support : Manuel Goepfert

Contact : metmap@orbifly.com




SOURCES & CREDITS :

   NOAA       Earth
Advisory